Time;durP1;ratioP1;P1;durP2;ratioP2;P2;SDS_P1;SDS_P2;PMS_P1;PMS_P2;Temp;Humidity;BMP_temperature;BMP_pressure;BME280_temperature;BME280_humidity;BME280_pressure;Samples;Min_cycle;Max_cycle;Signal;HPM_P1;HPM_P2
2022/04/14 00:01:21;;;;;;;0.10;0.10;;;;;;;14.82;100.00;100283.06;5009080;28;20207;-77
2022/04/14 00:03:49;;;;;;;0.00;0.00;;;;;;;14.89;100.00;100288.28;5012309;28;20200;-76
2022/04/14 00:06:18;;;;;;;0.10;0.10;;;;;;;14.94;100.00;100294.44;5010412;28;20215;-76
2022/04/14 00:08:46;;;;;;;0.40;0.40;;;;;;;14.93;100.00;100291.81;5011710;28;20220;-77
2022/04/14 00:11:14;;;;;;;0.10;0.10;;;;;;;14.81;100.00;100279.50;5008651;28;20195;-77
2022/04/14 00:13:42;;;;;;;0.10;0.10;;;;;;;14.73;100.00;100279.59;5010220;28;20200;-77
2022/04/14 00:16:11;;;;;;;0.20;0.20;;;;;;;14.75;100.00;100292.00;5009571;28;20211;-77
2022/04/14 00:18:39;;;;;;;0.10;0.10;;;;;;;14.76;100.00;100297.31;4996420;28;20251;-77
2022/04/14 00:21:07;;;;;;;0.20;0.20;;;;;;;14.74;100.00;100304.44;5015380;28;20196;-77
2022/04/14 00:23:35;;;;;;;0.10;0.10;;;;;;;14.61;100.00;100309.00;5015282;28;20204;-77
2022/04/14 00:26:03;;;;;;;0.28;0.28;;;;;;;14.66;100.00;100327.56;5015968;28;20204;-76
2022/04/14 00:28:32;;;;;;;0.10;0.10;;;;;;;14.71;100.00;100345.25;5015497;28;20220;-76
2022/04/14 00:31:00;;;;;;;0.10;0.10;;;;;;;14.69;100.00;100344.41;5017350;28;20805;-76
2022/04/14 00:33:28;;;;;;;0.55;0.55;;;;;;;14.78;100.00;100354.06;5017266;28;20228;-76
2022/04/14 00:35:56;;;;;;;0.10;0.10;;;14.50;99.90;;;14.77;100.00;100356.75;5017580;28;20196;-76
2022/04/14 00:38:25;;;;;;;0.10;0.10;;;;;;;14.69;100.00;100360.38;5017086;28;20254;-76
2022/04/14 00:40:55;;;;;;;0.10;0.10;;;;;;;14.62;100.00;100358.66;5016666;28;20196;-76
2022/04/14 00:43:31;;;;;;;0.10;0.10;;;14.40;99.90;;;14.57;100.00;100364.91;5017376;28;20211;-76
2022/04/14 00:46:01;;;;;;;0.10;0.10;;;14.40;99.90;;;14.54;100.00;100364.94;5016194;28;20215;-75
2022/04/14 00:48:31;;;;;;;0.10;0.10;;;14.40;99.90;;;14.62;100.00;100382.59;4998440;28;20235;-76
2022/04/14 00:51:00;;;;;;;0.10;0.10;;;;;;;14.66;100.00;100392.34;4998615;28;20200;-76
2022/04/14 00:53:28;;;;;;;0.10;0.10;;;;;;;14.56;100.00;100384.44;5015406;28;20239;-77
2022/04/14 00:55:57;;;;;;;0.65;0.65;;;;;;;14.56;100.00;100393.31;5015484;28;20204;-77
2022/04/14 00:58:26;;;;;;;0.10;0.10;;;;;;;14.60;100.00;100403.03;4996261;28;20230;-77
2022/04/14 01:00:54;;;;;;;0.35;0.35;;;;;;;14.59;100.00;100414.56;4998437;28;20211;-77
2022/04/14 01:03:22;;;;;;;0.20;0.20;;;;;;;14.64;100.00;100420.75;5015006;28;20207;-76
2022/04/14 01:05:53;;;;;;;0.10;0.10;;;14.40;99.90;;;14.68;100.00;100435.78;4997131;28;20215;-77
2022/04/14 01:08:22;;;;;;;0.10;0.10;;;14.40;99.90;;;14.59;100.00;100419.91;5013890;28;20218;-76
2022/04/14 01:10:50;;;;;;;0.20;0.20;;;;;;;14.59;100.00;100430.53;4996844;28;20207;-76
2022/04/14 01:13:19;;;;;;;0.10;0.10;;;14.30;99.90;;;14.52;100.00;100431.47;4998957;28;20228;-76
2022/04/14 01:15:48;;;;;;;0.10;0.10;;;14.30;99.90;;;14.53;100.00;100435.91;5016625;28;20200;-76
2022/04/14 01:18:17;;;;;;;0.10;0.10;;;;;;;14.48;100.00;100439.50;5014771;28;20204;-76
2022/04/14 01:20:45;;;;;;;0.10;0.10;;;;;;;14.32;100.00;100436.03;5015119;28;20215;-76
2022/04/14 01:23:14;;;;;;;0.10;0.10;;;14.20;99.90;;;14.30;100.00;100449.34;4996252;28;20227;-76
2022/04/14 01:25:42;;;;;;;0.20;0.20;;;;;;;14.24;100.00;100462.63;5015174;28;20211;-76
2022/04/14 01:28:11;;;;;;;0.10;0.10;;;;;;;14.26;100.00;100471.50;4980556;28;20208;-76
2022/04/14 01:30:39;;;;;;;0.10;0.10;;;;;;;14.21;100.00;100483.03;5013686;28;20579;-76
2022/04/14 01:33:07;;;;;;;0.10;0.10;;;;;;;14.23;100.00;100479.47;5014914;28;20223;-78
2022/04/14 01:35:36;;;;;;;0.20;0.20;;;;;;;14.26;100.00;100497.19;5014919;28;20207;-77
2022/04/14 01:38:04;;;;;;;0.20;0.20;;;;;;;14.30;100.00;100501.63;5014345;28;20200;-76
2022/04/14 01:40:32;;;;;;;0.00;0.00;;;;;;;14.25;100.00;100503.41;5014044;28;20204;-77
2022/04/14 01:43:01;;;;;;;0.10;0.10;;;;;;;14.31;100.00;100504.31;5012840;28;20212;-77
2022/04/14 01:45:30;;;;;;;0.20;0.20;;;;;;;14.25;100.00;100504.31;5011446;28;20203;-77
2022/04/14 01:47:58;;;;;;;0.10;0.10;;;;;;;14.23;100.00;100511.41;4986742;28;20200;-77
2022/04/14 01:50:26;;;;;;;0.10;0.10;;;;;;;14.12;100.00;100510.56;5013939;28;20223;-76
2022/04/14 01:52:54;;;;;;;0.10;0.10;;;;;;;14.13;100.00;100524.75;5013557;28;20223;-76
2022/04/14 01:55:22;;;;;;;0.10;0.10;;;14.40;99.90;;;14.15;100.00;100531.81;4996851;28;20204;-76
2022/04/14 01:57:51;;;;;;;0.20;0.20;;;;;;;14.16;100.00;100538.03;5013421;28;20204;-76
2022/04/14 02:00:19;;;;;;;0.10;0.10;;;15.80;99.90;;;14.05;100.00;100532.75;5013863;28;20232;-77
2022/04/14 02:02:47;;;;;;;0.10;0.10;;;;;;;14.05;100.00;100540.72;4995902;28;20656;-76
2022/04/14 02:05:15;;;;;;;0.10;0.10;;;;;;;14.09;100.00;100556.66;4996368;28;20196;-77
2022/04/14 02:07:44;;;;;;;0.10;0.10;;;;;;;14.17;100.00;100567.28;5013846;28;20204;-76
2022/04/14 02:10:14;;;;;;;0.10;0.10;;;;;;;14.22;100.00;100568.16;4995351;28;20220;-76
2022/04/14 02:12:45;;;;;;;0.10;0.10;;;;;;;14.32;100.00;100577.91;5011945;28;20227;-76
2022/04/14 02:15:14;;;;;;;0.10;0.10;;;;;;;14.38;100.00;100572.56;5013874;28;20566;-76
2022/04/14 02:17:42;;;;;;;0.10;0.10;;;;;;;14.39;100.00;100571.66;5013715;28;20204;-76
2022/04/14 02:20:10;;;;;;;0.10;0.10;;;;;;;14.32;100.00;100567.25;5012776;28;20219;-77
2022/04/14 02:22:40;;;;;;;0.20;0.20;;;14.10;99.90;;;14.33;100.00;100569.03;5012061;28;20222;-76
2022/04/14 02:25:09;;;;;;;0.10;0.10;;;14.10;99.90;;;14.28;100.00;100572.56;5011841;28;20196;-77
2022/04/14 02:27:38;;;;;;;0.10;0.10;;;;;;;14.28;100.00;100578.75;5011884;28;20214;-76
2022/04/14 02:30:07;;;;;;;0.32;0.32;;;14.20;99.90;;;14.23;100.00;100577.91;5014092;28;20231;-76
2022/04/14 02:32:35;;;;;;;0.10;0.10;;;;;;;14.26;100.00;100585.88;5014657;28;20200;-76
2022/04/14 02:35:04;;;;;;;0.47;0.47;;;14.30;99.90;;;14.24;100.00;100582.31;4998430;28;20640;-76
2022/04/14 02:37:32;;;;;;;0.10;0.10;;;;;;;14.21;100.00;100582.34;5014813;28;20208;-76
2022/04/14 02:40:01;;;;;;;0.10;0.10;;;;;;;14.16;100.00;100586.78;5014289;28;20220;-77
2022/04/14 02:42:29;;;;;;;0.10;0.10;;;;;;;14.16;100.00;100592.09;5012369;28;20227;-77
2022/04/14 02:44:57;;;;;;;0.40;0.40;;;;;;;14.03;100.00;100599.25;4995516;28;20663;-77
2022/04/14 02:47:26;;;;;;;0.10;0.10;;;;;;;14.06;100.00;100601.88;5012693;28;20208;-76
2022/04/14 02:49:54;;;;;;;0.10;0.10;;;;;;;14.02;100.00;100616.09;5012882;28;20219;-77
2022/04/14 02:52:22;;;;;;;0.10;0.10;;;;;;;13.93;100.00;100609.91;4995810;28;20202;-77
2022/04/14 02:54:50;;;;;;;0.10;0.10;;;;;;;13.91;100.00;100609.91;4983957;28;20234;-76
2022/04/14 02:57:23;;;;;;;0.10;0.10;;;;;;;13.91;100.00;100611.66;5013752;28;20886;-77
2022/04/14 02:59:52;;;;;;;0.10;0.10;;;;;;;13.86;100.00;100618.78;5011621;28;20227;-76
2022/04/14 03:02:20;;;;;;;0.10;0.10;;;;;;;13.84;100.00;100616.13;4968528;28;20239;-76
2022/04/14 03:04:48;;;;;;;0.10;0.10;;;;;;;13.78;100.00;100627.63;5012724;28;20208;-76
2022/04/14 03:07:17;;;;;;;0.10;0.10;;;;;;;13.73;100.00;100628.53;4995871;28;20204;-76
2022/04/14 03:09:48;;;;;;;0.10;0.10;;;;;;;13.71;100.00;100635.63;5009881;28;20228;-76
2022/04/14 03:12:18;;;;;;;0.30;0.30;;;;;;;13.71;100.00;100640.94;4996178;28;20207;-76
2022/04/14 03:14:49;;;;;;;0.10;0.10;;;;;;;13.68;100.00;100639.16;5012132;28;20232;-77
2022/04/14 03:17:17;;;;;;;0.10;0.10;;;;;;;13.63;100.00;100640.94;5012006;28;20204;-76
2022/04/14 03:19:45;;;;;;;0.10;0.10;;;;;;;13.65;100.00;100652.44;4976878;28;20228;-76
2022/04/14 03:22:14;;;;;;;0.10;0.10;;;;;;;13.63;100.00;100656.00;4993325;28;20207;-76
2022/04/14 03:24:42;;;;;;;0.20;0.20;;;;;;;13.61;100.00;100657.78;5012206;28;20200;-76
2022/04/14 03:27:10;;;;;;;0.10;0.10;;;;;;;13.59;100.00;100664.84;5012889;28;20200;-77
2022/04/14 03:29:41;;;;;;;0.10;0.10;;;;;;;13.56;100.00;100668.41;5001387;28;20243;-76
2022/04/14 03:32:09;;;;;;;0.10;0.10;;;;;;;13.60;100.00;100683.47;5013094;28;20211;-76
2022/04/14 03:34:37;;;;;;;0.20;0.20;;;;;;;13.63;100.00;100683.47;5012560;28;20242;-76
2022/04/14 03:37:06;;;;;;;0.10;0.10;;;13.40;99.90;;;13.60;100.00;100682.56;5014480;28;20215;-76
2022/04/14 03:39:34;;;;;;;0.10;0.10;;;;;;;13.57;100.00;100683.47;4995822;28;20215;-76
2022/04/14 03:42:03;;;;;;;0.40;0.40;;;13.40;99.90;;;13.55;100.00;100687.88;5013704;28;20582;-75
2022/04/14 03:44:31;;;;;;;0.20;0.20;;;;;;;13.54;100.00;100690.53;5013504;28;20212;-76
2022/04/14 03:46:59;;;;;;;0.10;0.10;;;;;;;13.52;100.00;100694.97;5011128;28;20215;-76
2022/04/14 03:49:27;;;;;;;0.10;0.10;;;;;;;13.53;100.00;100704.72;5015229;28;20223;-76
2022/04/14 03:51:56;;;;;;;0.30;0.30;;;;;;;13.47;100.00;100689.66;5000305;28;20210;-76
2022/04/14 03:54:24;;;;;;;0.20;0.20;;;;;;;13.50;100.00;100708.25;4999046;28;20623;-76
2022/04/14 03:56:53;;;;;;;0.10;0.10;;;;;;;13.48;100.00;100707.34;5016041;28;20211;-76
2022/04/14 03:59:21;;;;;;;0.10;0.10;;;;;;;13.53;100.00;100718.88;5016388;28;20231;-76
2022/04/14 04:01:49;;;;;;;0.13;0.13;;;;;;;13.48;100.00;100712.66;5018459;28;20218;-76
2022/04/14 04:04:18;;;;;;;0.10;0.10;;;;;;;13.48;100.00;100714.44;5008055;28;20200;-76
2022/04/14 04:06:46;;;;;;;0.20;0.20;;;;;;;13.45;100.00;100713.56;5015512;28;20196;-76
2022/04/14 04:09:14;;;;;;;0.10;0.10;;;;;;;13.38;100.00;100713.53;5014449;28;20365;-76
2022/04/14 04:11:42;;;;;;;0.10;0.10;;;;;;;13.39;100.00;100717.97;5015087;28;20200;-76
2022/04/14 04:14:11;;;;;;;0.10;0.10;;;;;;;13.38;100.00;100721.50;5014695;28;20239;-76
2022/04/14 04:16:39;;;;;;;0.10;0.10;;;;;;;13.35;100.00;100729.47;4998143;28;20273;-76
2022/04/14 04:19:08;;;;;;;0.10;0.10;;;;;;;13.36;100.00;100732.13;5014275;28;20235;-76
2022/04/14 04:21:36;;;;;;;0.20;0.20;;;;;;;13.27;100.00;100728.56;5015015;28;20211;-76
2022/04/14 04:24:04;;;;;;;0.10;0.10;;;;;;;13.36;100.00;100741.88;5015263;28;20204;-77
2022/04/14 04:26:33;;;;;;;0.10;0.10;;;;;;;13.37;100.00;100748.97;4998816;28;20196;-77
2022/04/14 04:29:01;;;;;;;0.10;0.10;;;;;;;13.28;100.00;100747.16;5018759;28;20231;-77
2022/04/14 04:31:29;;;;;;;0.10;0.10;;;13.10;99.90;;;13.35;100.00;100750.72;5016378;28;20203;-77
2022/04/14 04:33:57;;;;;;;0.10;0.10;;;;;;;13.39;100.00;100757.81;5019894;28;20228;-77
2022/04/14 04:36:26;;;;;;;0.10;0.10;;;;;;;13.41;100.00;100761.38;5014755;28;20204;-77
2022/04/14 04:38:54;;;;;;;0.10;0.10;;;;;;;13.36;100.00;100766.66;5015503;28;20231;-76
2022/04/14 04:41:22;;;;;;;0.10;0.10;;;;;;;13.34;100.00;100762.22;5015282;28;20207;-76
2022/04/14 04:43:50;;;;;;;0.10;0.10;;;;;;;13.34;100.00;100767.53;5015329;28;20200;-76
2022/04/14 04:46:19;;;;;;;0.10;0.10;;;;;;;13.38;100.00;100787.91;5015518;28;20215;-77
2022/04/14 04:48:47;;;;;;;0.50;0.50;;;;;;;13.37;100.00;100786.16;5013159;28;20216;-76
2022/04/14 04:51:16;;;;;;;0.10;0.10;;;;;;;13.32;100.00;100783.47;5018323;28;20674;-82
2022/04/14 04:53:44;;;;;;;0.10;0.10;;;;;;;13.40;100.00;100800.31;5022884;28;20204;-82
2022/04/14 04:56:13;;;;;;;0.10;0.10;;;;;;;13.39;100.00;100797.66;5012422;28;20199;-82
2022/04/14 04:58:41;;;;;;;0.10;0.10;;;;;;;13.45;100.00;100809.19;5013867;28;20219;-82
2022/04/14 05:01:09;;;;;;;0.30;0.30;;;;;;;13.44;100.00;100817.16;5014988;28;20203;-82
2022/04/14 05:03:38;;;;;;;0.10;0.10;;;;;;;13.50;100.00;100817.19;5011793;28;20594;-83
2022/04/14 05:06:07;;;;;;;0.10;0.10;;;;;;;13.58;100.00;100823.41;5012577;28;20199;-82
2022/04/14 05:08:35;;;;;;;0.10;0.10;;;;;;;13.55;100.00;100818.09;5012965;28;20212;-82
2022/04/14 05:11:08;;;;;;;0.15;0.15;;;;;;;13.57;100.00;100826.94;5009620;28;20195;-82
2022/04/14 05:13:37;;;;;;;0.10;0.10;;;;;;;13.63;100.00;100834.06;5015154;28;20195;-81
2022/04/14 05:16:07;;;;;;;0.32;0.32;;;;;;;13.63;100.00;100831.41;4997262;28;20203;-82
2022/04/14 05:18:35;;;;;;;0.10;0.10;;;;;;;13.62;100.00;100837.59;5014002;28;20231;-83
2022/04/14 05:21:03;;;;;;;0.10;0.10;;;;;;;13.67;100.00;100843.81;5010928;28;20204;-81
2022/04/14 05:23:32;;;;;;;0.10;0.10;;;;;;;13.75;100.00;100845.59;5015350;28;20207;-79
2022/04/14 05:26:00;;;;;;;0.10;0.10;;;;;;;13.79;100.00;100846.50;5012616;28;20215;-79
2022/04/14 05:28:29;;;;;;;0.22;0.22;;;;;;;13.81;100.00;100850.06;5010019;28;20223;-76
2022/04/14 05:30:57;;;;;;;0.10;0.10;;;;;;;13.86;100.00;100852.72;5014849;28;20200;-77
2022/04/14 05:33:26;;;;;;;0.10;0.10;;;;;;;13.96;100.00;100847.41;5013820;28;20220;-78
2022/04/14 05:35:54;;;;;;;0.10;0.10;;;;;;;13.94;100.00;100841.22;5009480;28;20227;-77
2022/04/14 05:38:23;;;;;;;0.10;0.10;;;;;;;13.92;100.00;100845.63;5006022;28;20227;-77
2022/04/14 05:40:51;;;;;;;0.10;0.10;;;;;;;14.00;100.00;100848.31;5013307;28;20207;-77
2022/04/14 05:43:23;;;;;;;0.20;0.20;;;13.70;99.90;;;13.99;100.00;100841.22;5013111;28;20207;-77
2022/04/14 05:45:52;;;;;;;0.10;0.10;;;;;;;14.08;100.00;100843.91;5013201;28;20212;-77
2022/04/14 05:48:20;;;;;;;0.13;0.13;;;13.80;99.90;;;14.06;100.00;100838.56;5012269;28;20204;-77
2022/04/14 05:50:49;;;;;;;0.30;0.30;;;13.90;99.90;;;14.06;100.00;100837.69;5012974;28;20196;-77
2022/04/14 05:53:27;;;;;;;0.63;0.63;;;13.80;99.90;;;14.07;100.00;100837.69;5014177;28;20214;-77
2022/04/14 05:55:56;;;;;;;0.40;0.40;;;;;;;14.13;100.00;100842.13;5006324;28;20230;-77
2022/04/14 05:58:24;;;;;;;0.10;0.10;;;;;;;14.19;100.00;100847.44;5012247;28;20228;-77
2022/04/14 06:00:52;;;;;;;0.10;0.10;;;;;;;14.26;100.00;100849.22;5011741;28;20211;-77
2022/04/14 06:03:21;;;;;;;0.10;0.10;;;;;;;14.29;100.00;100843.91;5012637;28;20219;-77
2022/04/14 06:05:49;;;;;;;0.20;0.20;;;;;;;14.35;100.00;100851.94;5008392;28;20687;-77
2022/04/14 06:08:19;;;;;;;0.10;0.10;;;;;;;14.40;100.00;100838.63;4996075;28;20208;-77
2022/04/14 06:10:49;;;;;;;0.10;0.10;;;;;;;14.46;100.00;100838.66;5010947;28;20700;-77
2022/04/14 06:13:17;;;;;;;0.20;0.20;;;;;;;14.55;100.00;100843.97;5027321;28;20222;-77
2022/04/14 06:15:46;;;;;;;0.10;0.10;;;;;;;14.63;100.00;100836.88;5011285;28;20242;-77
2022/04/14 06:18:15;;;;;;;0.20;0.20;;;;;;;14.70;100.00;100838.63;5000395;28;20231;-77
2022/04/14 06:20:47;;;;;;;0.17;0.17;;;;;;;14.76;100.00;100837.72;5010936;28;20215;-77
2022/04/14 06:23:17;;;;;;;0.25;0.25;;;;;;;14.84;100.00;100833.28;4998862;28;20207;-77
2022/04/14 06:25:55;;;;;;;0.28;0.28;;;;;;;14.88;100.00;100837.72;5010356;28;20210;-77
2022/04/14 06:28:25;;;;;;;0.15;0.15;;;;;;;14.92;100.00;100822.63;5009104;28;20230;-77
2022/04/14 06:30:58;;;;;;;0.00;0.00;;;14.70;99.90;;;14.95;100.00;100827.94;5000269;28;20679;-77
2022/04/14 06:33:30;;;;;;;0.10;0.10;;;;;;;15.03;100.00;100824.34;4997627;28;20206;-76
2022/04/14 06:35:59;;;;;;;0.10;0.10;;;;;;;15.07;100.00;100814.56;5012225;28;20232;-76
2022/04/14 06:38:27;;;;;;;0.10;0.10;;;;;;;15.12;100.00;100815.44;5016189;28;20607;-77
2022/04/14 06:40:58;;;;;;;0.10;0.10;;;;;;;15.16;100.00;100803.00;5004693;28;20204;-77
2022/04/14 06:43:27;;;;;;;0.10;0.10;;;;;;;15.22;100.00;100800.31;4992338;28;20219;-78
2022/04/14 06:45:57;;;;;;;0.10;0.10;;;;;;;15.25;100.00;100805.63;5019520;28;20210;-77
2022/04/14 06:48:34;;;;;;;0.15;0.15;;;15.00;99.90;;;15.25;100.00;100800.28;5007497;28;20235;-77
2022/04/14 06:51:05;;;;;;;0.10;0.10;;;;;;;15.29;100.00;100791.41;4987537;28;20212;-77
2022/04/14 06:53:34;;;;;;;0.03;0.03;;;;;;;15.33;100.00;100801.16;4992922;28;20211;-77
2022/04/14 06:56:05;;;;;;;0.10;0.10;;;;;;;15.36;100.00;100791.38;5008187;28;20223;-77
2022/04/14 06:58:36;;;;;;;0.20;0.20;;;;;;;15.33;100.00;100788.72;5006378;28;20227;-77
2022/04/14 07:01:04;;;;;;;0.10;0.10;;;;;;;15.31;100.00;100790.50;5003617;28;20199;-77
2022/04/14 07:03:36;;;;;;;0.10;0.10;;;;;;;15.36;100.00;100785.16;5010625;28;20597;-77
2022/04/14 07:06:12;;;;;;;0.10;0.10;;;;;;;15.37;100.00;100787.81;4983489;28;20210;-77
2022/04/14 07:08:45;;;;;;;0.32;0.32;;;15.20;99.90;;;15.36;100.00;100786.03;5006691;28;20227;-77
2022/04/14 07:11:16;;;;;;;0.10;0.10;;;;;;;15.35;100.00;100780.72;5011773;28;20202;-78
2022/04/14 07:13:48;;;;;;;0.10;0.10;;;;;;;15.38;100.00;100794.91;4990640;28;20215;-77
2022/04/14 07:16:18;;;;;;;0.10;0.10;;;;;;;15.32;100.00;100781.63;5003418;28;20259;-77
2022/04/14 07:18:49;;;;;;;0.10;0.10;;;;;;;15.38;100.00;100788.69;4989293;28;20227;-78
2022/04/14 07:21:18;;;;;;;0.10;0.10;;;;;;;15.31;100.00;100784.28;4994563;28;20203;-78
2022/04/14 07:23:48;;;;;;;0.10;0.10;;;;;;;15.38;100.00;100786.03;5000079;28;20191;-77
2022/04/14 07:26:17;;;;;;;0.10;0.10;;;;;;;15.38;100.00;100792.25;5015377;28;20215;-77
2022/04/14 07:28:45;;;;;;;0.10;0.10;;;;;;;15.40;100.00;100797.56;5011170;28;20226;-77
2022/04/14 07:31:26;;;;;;;0.10;0.10;;;;;;;15.33;100.00;100794.03;5010374;28;20200;-77
2022/04/14 07:33:55;;;;;;;0.35;0.35;;;;;;;15.37;100.00;100794.91;5017665;28;20218;-77
2022/04/14 07:36:27;;;;;;;0.10;0.10;;;;;;;15.37;100.00;100802.91;5011828;28;20230;-78
2022/04/14 07:39:09;;;;;;;0.10;0.10;;;;;;;15.44;100.00;100809.97;5015390;28;20589;-77
2022/04/14 07:41:38;;;;;;;0.10;0.10;;;15.30;99.90;;;15.42;100.00;100806.44;5010862;28;20215;-77
2022/04/14 07:44:07;;;;;;;0.10;0.10;;;;;;;15.51;100.00;100824.16;4986525;28;20231;-77
2022/04/14 07:46:41;;;;;;;0.20;0.20;;;;;;;15.62;100.00;100833.94;4984019;28;20331;-77
2022/04/14 07:49:13;;;;;;;0.10;0.10;;;15.50;99.90;;;15.57;100.00;100826.78;5025276;28;20227;-77
2022/04/14 07:51:43;;;;;;;0.10;0.10;;;15.50;99.90;;;15.55;100.00;100824.13;5018775;28;20200;-77
2022/04/14 07:54:12;;;;;;;0.77;0.45;;;;;;;15.72;100.00;100837.44;5018412;28;20195;-77
2022/04/14 07:56:40;;;;;;;0.10;0.10;;;;;;;15.56;100.00;100814.38;5015523;28;20231;-77
2022/04/14 07:59:12;;;;;;;0.10;0.10;;;;;;;15.67;100.00;100828.59;5014711;28;20215;-77
2022/04/14 08:01:49;;;;;;;0.10;0.10;;;;;;;15.60;100.00;100826.81;5013164;28;20483;-77
2022/04/14 08:04:19;;;;;;;0.10;0.10;;;;;;;15.58;100.00;100821.50;4977638;28;20204;-77
2022/04/14 08:06:49;;;;;;;0.10;0.10;;;;;;;15.66;100.00;100837.47;5011995;28;20207;-77
2022/04/14 08:09:41;;;;;;;0.00;0.00;;;;;;;15.62;100.00;100827.72;4999318;28;20223;-77
2022/04/14 08:12:14;;;;;;;0.10;0.10;;;15.40;99.90;;;15.63;100.00;100826.84;5015763;28;20200;-77
2022/04/14 08:14:42;;;;;;;0.03;0.03;;;;;;;15.66;100.00;100834.81;5013008;28;20200;-77
2022/04/14 08:17:11;;;;;;;0.10;0.10;;;;;;;15.73;100.00;100838.34;5014627;28;20238;-77
2022/04/14 08:19:44;;;;;;;0.65;0.45;;;;;;;15.71;100.00;100835.69;4996986;28;20222;-77
2022/04/14 08:22:17;;;;;;;0.10;0.10;;;;;;;15.87;100.00;100847.13;5011802;28;20192;-77
2022/04/14 08:24:49;;;;;;;0.35;0.35;;;;;;;15.91;100.00;100840.88;5009480;28;20192;-77
2022/04/14 08:27:46;;;;;;;0.10;0.10;;;;;;;15.81;100.00;100826.72;4999039;28;20200;-77
2022/04/14 08:30:23;;;;;;;0.05;0.05;;;;;;;15.99;100.00;100847.94;4979675;28;20220;-77
2022/04/14 08:33:06;;;;;;;0.30;0.25;;;15.90;99.90;;;15.94;100.00;100840.88;5010721;28;20212;-77
2022/04/14 08:35:41;;;;;;;0.10;0.10;;;;;;;15.83;100.00;100821.38;5005884;28;20231;-77
2022/04/14 08:38:18;;;;;;;0.40;0.40;;;;;;;15.97;100.00;100835.50;4995940;28;20219;-76
2022/04/14 08:40:52;;;;;;;0.08;0.08;;;16.00;99.90;;;16.20;100.00;100848.69;4995363;28;20200;-76
2022/04/14 08:44:00;;;;;;;0.10;0.10;;;16.10;99.90;;;16.13;100.00;100830.97;4995855;28;20208;-76
2022/04/14 08:46:31;;;;;;;0.10;0.10;;;16.20;99.90;;;16.16;100.00;100834.50;5015310;28;20215;-75
2022/04/14 08:49:01;;;;;;;0.10;0.10;;;16.20;99.90;;;16.28;100.00;100844.19;5012529;28;20822;-75
2022/04/14 08:51:36;;;;;;;0.10;0.10;;;16.20;99.90;;;16.36;100.00;100841.44;5013703;28;20200;-75
2022/04/14 08:54:07;;;;;;;0.95;0.52;;;16.20;99.90;;;16.21;100.00;100826.44;5020957;28;20207;-75
2022/04/14 08:56:37;;;;;;;0.10;0.10;;;16.30;99.90;;;16.31;100.00;100826.38;4996552;28;20231;-76
2022/04/14 08:59:08;;;;;;;0.10;0.10;;;16.20;99.90;;;16.44;100.00;100818.25;4996835;28;20304;-76
2022/04/14 09:01:39;;;;;;;1.10;1.10;;;16.50;99.90;;;16.92;100.00;100835.66;4992945;28;20522;-76
2022/04/14 09:04:09;;;;;;;0.17;0.17;;;16.80;99.90;;;17.31;100.00;100842.31;4996073;28;20222;-76
2022/04/14 09:06:39;;;;;;;0.10;0.10;;;;;;;17.20;100.00;100807.72;4973194;28;20219;-76
2022/04/14 09:09:08;;;;;;;0.80;0.80;;;17.00;99.90;;;17.00;100.00;100766.97;5010272;28;20226;-76
2022/04/14 09:11:39;;;;;;;0.10;0.10;;;17.10;99.90;;;17.51;100.00;100796.63;5006709;28;20219;-76
2022/04/14 09:14:09;;;;;;;0.00;0.00;;;17.30;99.90;;;17.65;100.00;100777.72;4995651;28;20219;-76
2022/04/14 09:16:38;;;;;;;0.10;0.10;;;;;;;17.52;100.00;100743.13;5016718;28;20234;-77
2022/04/14 09:19:08;;;;;;;0.10;0.10;;;;;;;17.66;100.00;100752.72;4997786;28;20224;-77
2022/04/14 09:21:36;;;;;;;0.10;0.10;;;;;;;17.53;100.00;100720.81;5014692;28;20204;-76
2022/04/14 09:24:04;;;;;;;0.20;0.20;;;17.50;99.90;;;17.62;100.00;100716.25;4973048;28;20204;-77
2022/04/14 09:26:32;;;;;;;0.10;0.10;;;;;;;17.76;100.00;100731.19;4988522;28;20214;-77
2022/04/14 09:29:10;;;;;;;0.10;0.10;;;17.70;99.90;;;17.92;100.00;100722.00;5013319;28;20227;-76
2022/04/14 09:31:50;;;;;;;0.30;0.30;;;17.70;99.90;;;18.03;100.00;100712.94;5018974;28;20210;-77
2022/04/14 09:34:48;;;;;;;0.10;0.10;;;18.00;99.90;;;18.21;100.00;100715.31;5007029;28;20223;-76
2022/04/14 09:37:18;;;;;;;0.10;0.10;;;18.10;99.90;;;18.13;100.00;100691.31;5004613;28;20579;-75
2022/04/14 09:40:08;;;;;;;0.10;0.10;;;18.20;99.90;;;18.41;100.00;100702.44;5014781;28;20223;-76
2022/04/14 09:42:42;;;;;;;0.10;0.10;;;18.40;99.90;;;18.58;100.00;100703.91;4998382;28;20219;-76
2022/04/14 09:45:19;;;;;;;0.22;0.22;;;18.60;99.90;;;18.91;100.00;100697.03;5012801;28;20201;-76
2022/04/14 09:48:15;;;;;;;0.10;0.10;;;18.80;99.90;;;18.85;100.00;100658.72;5015592;28;20222;-76
2022/04/14 09:50:48;;;;;;;0.08;0.08;;;18.90;99.90;;;18.87;100.00;100631.91;5009876;28;20200;-77
2022/04/14 09:53:20;;;;;;;0.10;0.10;;;19.00;99.90;;;19.10;100.00;100663.53;5014810;28;20203;-76
2022/04/14 09:55:51;;;;;;;0.35;0.35;;;19.10;99.90;;;18.84;100.00;100618.56;5031240;23;20227;-77
2022/04/14 09:58:26;;;;;;;0.10;0.10;;;19.00;99.90;;;18.82;100.00;100620.41;5013653;28;20232;-76
2022/04/14 10:00:57;;;;;;;0.00;0.00;;;18.90;99.90;;;19.06;100.00;100660.06;5032668;28;20591;-76
2022/04/14 10:03:30;;;;;;;0.00;0.00;;;19.10;99.90;;;19.34;99.13;100637.97;5031731;28;20212;-77
2022/04/14 10:06:05;;;;;;;0.20;0.20;;;19.20;99.90;;;19.11;98.68;100591.13;5001432;28;20211;-77
2022/04/14 10:08:54;;;;;;;0.00;0.00;;;19.20;99.90;;;19.32;98.73;100604.94;5031819;28;20230;-77
2022/04/14 10:11:35;;;;;;;0.52;0.52;;;19.40;99.90;;;19.42;97.99;100602.00;5031579;28;20210;-76
2022/04/14 10:14:13;;;;;;;0.75;0.75;;;19.50;99.90;;;19.61;97.85;100604.28;5033612;28;20589;-79
2022/04/14 10:16:42;;;;;;;0.40;0.40;;;;;;;19.63;98.12;100594.41;5027693;28;20218;-79
2022/04/14 10:19:10;;;;;;;0.00;0.00;;;;;;;19.48;97.73;100574.16;5031866;28;20222;-79
2022/04/14 10:21:39;;;;;;;0.10;0.10;;;19.50;99.90;;;19.49;96.08;100563.38;5025149;28;20625;-79
2022/04/14 10:24:08;;;;;;;0.10;0.10;;;19.60;99.90;;;19.45;94.69;100523.25;5014605;28;20203;-78
2022/04/14 10:26:43;;;;;;;0.20;0.20;;;19.80;99.90;;;20.32;97.05;100622.97;5027909;28;20206;-75
2022/04/14 10:29:14;;;;;;;0.55;0.55;;;20.10;99.90;;;20.19;94.22;100552.59;5021920;28;20227;-75
2022/04/14 10:31:43;;;;;;;0.00;0.00;;;20.30;99.90;;;20.30;91.63;100514.69;4990285;28;20206;-74
2022/04/14 10:34:15;;;;;;;0.08;0.08;;;;;;;20.22;93.86;100528.34;5011361;28;20207;-75
2022/04/14 10:36:43;;;;;;;0.00;0.00;;;;;;;20.33;91.34;100509.25;5024891;28;20254;-74
2022/04/14 10:39:13;;;;;;;0.00;0.00;;;20.40;99.90;;;20.25;92.79;100512.16;4989356;28;20219;-74
2022/04/14 10:41:49;;;;;;;0.00;0.00;;;20.50;99.90;;;20.44;88.31;100488.34;5005336;28;20203;-74
2022/04/14 10:44:22;;;;;;;0.00;0.00;;;20.30;99.90;;;19.97;86.68;100393.97;5008182;28;20198;-75
2022/04/14 10:46:56;;;;;;;0.13;0.13;;;;;;;20.21;86.07;100410.25;5024717;28;20210;-73
2022/04/14 10:49:25;;;;;;;0.00;0.00;;;;;;;20.49;85.56;100421.91;4990183;28;20231;-75
2022/04/14 10:51:54;;;;;;;0.00;0.00;;;20.40;99.90;;;20.04;88.73;100400.91;5024726;28;20199;-75
2022/04/14 10:54:22;;;;;;;0.65;0.65;;;;;;;20.14;86.54;100383.59;5024180;28;20238;-76
2022/04/14 10:56:51;;;;;;;0.00;0.00;;;20.50;99.90;;;20.61;85.79;100417.94;5022485;28;20227;-75
2022/04/14 10:59:42;;;;;;;0.00;0.00;;;20.60;99.90;;;20.59;83.81;100384.88;5025511;28;20253;-75
2022/04/14 11:02:10;;;;;;;0.10;0.10;;;;;;;20.43;84.37;100358.53;5024312;28;20207;-75
2022/04/14 11:04:42;;;;;;;0.32;0.32;;;20.10;99.90;;;20.00;83.63;100297.22;5006074;28;20204;-75
2022/04/14 11:07:15;;;;;;;0.22;0.22;;;20.30;99.90;;;20.48;82.60;100325.25;4991136;28;20223;-73
2022/04/14 11:09:54;;;;;;;0.00;0.00;;;20.60;99.90;;;20.71;81.55;100336.09;5025491;28;20231;-74
2022/04/14 11:12:32;;;;;;;0.10;0.10;;;;;;;20.89;81.24;100340.00;5021313;28;20214;-74